Time,TemperatureF,DewpointF,PressureIn,WindDirection,WindDirectionDegrees,WindSpeedMPH,WindSpeedGustMPH,Humidity,HourlyPrecipIn,Conditions,Clouds,dailyrainin,SoftwareType,DateUTC
2013-02-25 00:01:00,28.0,27.0,30.10,SW,218,0.0,2.0,95,0.00,,,0.00,,2013-02-25 05:01:00,
2013-02-25 00:11:00,28.0,27.0,30.10,SW,218,0.0,2.0,95,0.00,,,0.00,,2013-02-25 05:11:00,
2013-02-25 00:22:00,28.0,27.0,30.10,SW,218,0.0,2.0,95,0.00,,,0.00,,2013-02-25 05:22:00,
2013-02-25 00:32:00,28.0,27.0,30.11,SSE,159,0.0,2.0,95,0.00,,,0.00,,2013-02-25 05:32:00,
2013-02-25 00:42:00,28.0,27.0,30.11,SSE,159,0.0,2.0,95,0.00,,,0.00,,2013-02-25 05:42:00,
2013-02-25 00:52:00,28.0,27.0,30.11,SW,215,0.0,1.0,95,0.00,,,0.00,,2013-02-25 05:52:00,
2013-02-25 01:02:00,27.0,26.0,30.12,South,169,0.0,1.0,95,0.00,,,0.00,,2013-02-25 06:02:00,
2013-02-25 01:12:00,27.0,26.0,30.12,South,169,0.0,1.0,95,0.00,,,0.00,,2013-02-25 06:12:00,
2013-02-25 01:21:00,27.0,26.0,30.12,South,169,0.0,1.0,94,0.00,,,0.00,,2013-02-25 06:21:00,
2013-02-25 01:32:00,27.0,26.0,30.13,SSW,203,0.0,1.0,94,0.00,,,0.00,,2013-02-25 06:32:00,
2013-02-25 01:42:00,27.0,26.0,30.13,SSW,203,0.0,1.0,94,0.00,,,0.00,,2013-02-25 06:42:00,
2013-02-25 01:51:00,26.0,25.0,30.13,SSW,203,0.0,0.0,94,0.00,,,0.00,,2013-02-25 06:51:00,
2013-02-25 02:01:00,26.0,25.0,30.14,SSW,203,0.0,0.0,95,0.00,,,0.00,,2013-02-25 07:01:00,
2013-02-25 02:11:00,26.0,25.0,30.14,SSW,203,0.0,0.0,95,0.00,,,0.00,,2013-02-25 07:11:00,
2013-02-25 02:21:00,26.0,25.0,30.14,SSW,203,0.0,0.0,95,0.00,,,0.00,,2013-02-25 07:21:00,
2013-02-25 02:32:00,26.0,25.0,30.15,SSW,203,0.0,0.0,95,0.00,,,0.00,,2013-02-25 07:32:00,
2013-02-25 02:42:00,26.0,25.0,30.15,SSW,203,0.0,0.0,95,0.00,,,0.00,,2013-02-25 07:42:00,
2013-02-25 02:51:00,26.0,25.0,30.15,SSW,203,0.0,0.0,94,0.00,,,0.00,,2013-02-25 07:51:00,
2013-02-25 03:01:00,26.0,25.0,30.16,SSW,203,0.0,0.0,95,0.00,,,0.00,,2013-02-25 08:01:00,
2013-02-25 03:11:00,26.0,25.0,30.16,SSW,203,0.0,0.0,95,0.00,,,0.00,,2013-02-25 08:11:00,
2013-02-25 03:21:00,26.0,25.0,30.16,SSW,203,0.0,0.0,95,0.00,,,0.00,,2013-02-25 08:21:00,
2013-02-25 03:32:00,26.0,25.0,30.16,SSW,203,0.0,0.0,95,0.00,,,0.00,,2013-02-25 08:32:00,
2013-02-25 03:42:00,26.0,25.0,30.16,SSW,203,0.0,0.0,95,0.00,,,0.00,,2013-02-25 08:42:00,
2013-02-25 03:52:00,24.0,23.0,30.16,SSW,203,0.0,0.0,94,0.00,,,0.00,,2013-02-25 08:52:00,
2013-02-25 07:32:00,22.0,21.0,30.24,East,85,0.0,1.0,94,0.00,,,0.00,,2013-02-25 12:32:00,
2013-02-25 07:42:00,22.0,21.0,30.24,East,85,0.0,1.0,94,0.00,,,0.00,,2013-02-25 12:42:00,
2013-02-25 07:54:00,22.0,20.0,30.24,NE,46,0.0,0.0,93,0.00,,,0.00,,2013-02-25 12:54:00,
2013-02-25 08:02:00,22.0,20.0,30.25,NNE,26,0.0,1.0,93,0.00,,,0.00,,2013-02-25 13:02:00,
2013-02-25 08:12:00,22.0,20.0,30.25,NNE,26,0.0,1.0,93,0.00,,,0.00,,2013-02-25 13:12:00,
2013-02-25 08:23:00,23.0,21.0,30.25,NNE,32,0.0,1.0,93,0.00,,,0.00,,2013-02-25 13:23:00,
2013-02-25 08:32:00,23.0,21.0,30.25,NNE,33,0.0,0.0,93,0.00,,,0.00,,2013-02-25 13:32:00,
2013-02-25 08:42:00,23.0,21.0,30.25,NNE,33,0.0,0.0,93,0.00,,,0.00,,2013-02-25 13:42:00,
2013-02-25 08:52:00,26.0,24.0,30.25,NNE,32,0.0,0.0,93,0.00,,,0.00,,2013-02-25 13:52:00,
2013-02-25 09:03:00,28.0,26.0,30.26,NE,44,0.0,1.0,92,0.00,,,0.00,,2013-02-25 14:03:00,
2013-02-25 09:17:00,28.0,26.0,30.26,NE,44,0.0,1.0,92,0.00,,,0.00,,2013-02-25 14:17:00,
2013-02-25 09:32:00,33.0,30.0,30.26,WSW,249,0.0,0.0,87,0.00,,,0.00,,2013-02-25 14:32:00,
2013-02-25 09:52:00,32.0,29.0,30.27,ESE,110,0.0,0.0,88,0.00,,,0.00,,2013-02-25 14:52:00,
2013-02-25 10:03:00,32.0,29.0,30.27,ESE,110,0.0,0.0,88,0.00,,,0.00,,2013-02-25 15:03:00,
2013-02-25 10:11:00,32.0,29.0,30.27,ESE,110,0.0,0.0,88,0.00,,,0.00,,2013-02-25 15:11:00,
2013-02-25 10:22:00,37.0,33.0,30.27,WSW,248,0.0,1.0,86,0.00,,,0.00,,2013-02-25 15:22:00,
2013-02-25 10:32:00,38.0,34.0,30.27,WSW,243,0.0,2.0,86,0.00,,,0.00,,2013-02-25 15:32:00,
2013-02-25 10:52:00,40.0,35.0,30.26,NW,312,0.0,3.0,83,0.00,,,0.00,,2013-02-25 15:52:00,
2013-02-25 11:02:00,41.0,35.0,30.26,South,181,2.0,6.0,80,0.00,,,0.00,,2013-02-25 16:02:00,
2013-02-25 11:32:00,38.0,33.0,30.27,East,96,3.0,6.0,82,0.01,,,0.01,,2013-02-25 16:32:00,
2013-02-25 11:52:00,37.0,33.0,30.28,East,85,3.0,8.0,85,0.04,,,0.04,,2013-02-25 16:52:00,
2013-02-25 12:02:00,39.0,34.0,30.27,ESE,122,4.0,9.0,83,0.08,,,0.08,,2013-02-25 17:02:00,
2013-02-25 12:21:00,38.0,33.0,30.27,ENE,60,3.0,11.0,83,0.15,,,0.15,,2013-02-25 17:21:00,
2013-02-25 12:52:00,37.0,33.0,30.28,WSW,238,1.0,8.0,86,0.21,,,0.25,,2013-02-25 17:52:00,
2013-02-25 13:02:00,36.0,32.0,30.29,East,86,2.0,5.0,86,0.19,,,0.27,,2013-02-25 18:02:00,
2013-02-25 13:12:00,36.0,32.0,30.29,East,86,2.0,5.0,86,0.19,,,0.27,,2013-02-25 18:12:00,
2013-02-25 13:21:00,36.0,32.0,30.29,SE,142,0.0,3.0,86,0.14,,,0.28,,2013-02-25 18:21:00,
2013-02-25 13:33:00,36.0,32.0,30.29,WSW,253,2.0,7.0,86,0.09,,,0.30,,2013-02-25 18:33:00,
2013-02-25 13:42:00,36.0,32.0,30.29,WSW,253,2.0,7.0,86,0.09,,,0.30,,2013-02-25 18:42:00,
2013-02-25 13:51:00,36.0,33.0,30.30,SE,140,0.0,3.0,87,0.07,,,0.32,,2013-02-25 18:51:00,
2013-02-25 14:01:00,36.0,33.0,30.30,SSE,150,1.0,3.0,87,0.06,,,0.33,,2013-02-25 19:01:00,
2013-02-25 14:11:00,36.0,33.0,30.30,SSE,150,1.0,3.0,87,0.06,,,0.33,,2013-02-25 19:11:00,
2013-02-25 14:22:00,36.0,33.0,30.31,SE,131,1.0,4.0,87,0.04,,,0.33,,2013-02-25 19:22:00,
2013-02-25 14:32:00,36.0,33.0,30.31,SE,128,0.0,1.0,87,0.04,,,0.34,,2013-02-25 19:32:00,
2013-02-25 14:42:00,36.0,33.0,30.31,SE,128,0.0,1.0,87,0.04,,,0.34,,2013-02-25 19:42:00,
2013-02-25 14:52:00,36.0,33.0,30.31,South,173,0.0,1.0,87,0.03,,,0.35,,2013-02-25 19:52:00,
2013-02-25 15:01:00,36.0,33.0,30.32,SSW,200,0.0,1.0,87,0.02,,,0.35,,2013-02-25 20:01:00,
2013-02-25 15:11:00,36.0,33.0,30.32,SSW,200,0.0,1.0,87,0.02,,,0.35,,2013-02-25 20:11:00,
2013-02-25 15:21:00,36.0,33.0,30.33,ESE,105,0.0,2.0,87,0.03,,,0.36,,2013-02-25 20:21:00,
2013-02-25 15:32:00,35.0,32.0,30.34,East,99,0.0,2.0,87,0.02,,,0.36,,2013-02-25 20:32:00,
2013-02-25 15:42:00,35.0,32.0,30.34,East,99,0.0,2.0,87,0.02,,,0.36,,2013-02-25 20:42:00,
2013-02-25 15:52:00,35.0,32.0,30.34,ENE,58,0.0,2.0,88,0.02,,,0.37,,2013-02-25 20:52:00,
2013-02-25 16:02:00,35.0,32.0,30.34,East,94,0.0,1.0,90,0.02,,,0.37,,2013-02-25 21:02:00,
2013-02-25 16:11:00,35.0,32.0,30.34,East,94,0.0,1.0,90,0.02,,,0.37,,2013-02-25 21:11:00,
2013-02-25 16:22:00,35.0,32.0,30.35,SE,126,0.0,1.0,89,0.02,,,0.38,,2013-02-25 21:22:00,
2013-02-25 16:32:00,35.0,32.0,30.35,SSW,210,0.0,2.0,88,0.02,,,0.38,,2013-02-25 21:32:00,
2013-02-25 16:42:00,35.0,32.0,30.35,SSW,210,0.0,2.0,88,0.02,,,0.38,,2013-02-25 21:42:00,
2013-02-25 16:51:00,35.0,32.0,30.36,SSW,211,0.0,0.0,90,0.01,,,0.38,,2013-02-25 21:51:00,
2013-02-25 17:02:00,34.0,32.0,30.36,SSW,210,0.0,1.0,92,0.01,,,0.38,,2013-02-25 22:02:00,
2013-02-25 17:11:00,34.0,32.0,30.36,SSW,210,0.0,1.0,92,0.01,,,0.38,,2013-02-25 22:11:00,
2013-02-25 17:21:00,34.0,32.0,30.37,SSW,210,0.0,0.0,93,0.01,,,0.39,,2013-02-25 22:21:00,
2013-02-25 17:32:00,33.0,31.0,30.37,SSW,210,0.0,0.0,93,0.01,,,0.39,,2013-02-25 22:32:00,
2013-02-25 17:42:00,33.0,31.0,30.37,SSW,210,0.0,0.0,93,0.01,,,0.39,,2013-02-25 22:42:00,
2013-02-25 17:52:00,33.0,31.0,30.37,SSW,210,0.0,0.0,94,0.01,,,0.39,,2013-02-25 22:52:00,
2013-02-25 18:01:00,33.0,31.0,30.37,SSW,210,0.0,0.0,94,0.01,,,0.39,,2013-02-25 23:01:00,
2013-02-25 18:11:00,33.0,31.0,30.37,SSW,210,0.0,0.0,94,0.01,,,0.39,,2013-02-25 23:11:00,
2013-02-25 18:22:00,33.0,31.0,30.37,SSW,210,0.0,0.0,94,0.00,,,0.39,,2013-02-25 23:22:00,
2013-02-25 18:32:00,32.0,30.0,30.37,ENE,65,0.0,1.0,94,0.00,,,0.39,,2013-02-25 23:32:00,
2013-02-25 18:42:00,32.0,30.0,30.37,ENE,65,0.0,1.0,94,0.00,,,0.39,,2013-02-25 23:42:00,
2013-02-25 18:52:00,32.0,31.0,30.37,ENE,65,0.0,0.0,95,0.00,,,0.39,,2013-02-25 23:52:00,
2013-02-25 19:02:00,32.0,31.0,30.38,ENE,65,0.0,0.0,95,0.00,,,0.39,,2013-02-26 00:02:00,
2013-02-25 19:12:00,32.0,31.0,30.38,ENE,65,0.0,0.0,95,0.00,,,0.39,,2013-02-26 00:12:00,
2013-02-25 19:22:00,32.0,31.0,30.38,ENE,65,0.0,0.0,95,0.00,,,0.39,,2013-02-26 00:22:00,
2013-02-25 19:32:00,31.0,30.0,30.38,ENE,65,0.0,0.0,95,0.00,,,0.39,,2013-02-26 00:32:00,
2013-02-25 19:42:00,31.0,30.0,30.38,ENE,65,0.0,0.0,95,0.00,,,0.39,,2013-02-26 00:42:00,
2013-02-25 19:51:00,31.0,30.0,30.39,ENE,65,0.0,0.0,95,0.00,,,0.39,,2013-02-26 00:51:00,
2013-02-25 20:02:00,31.0,30.0,30.39,ENE,64,0.0,1.0,95,0.00,,,0.39,,2013-02-26 01:02:00,
2013-02-25 20:11:00,31.0,30.0,30.39,ENE,64,0.0,1.0,95,0.00,,,0.39,,2013-02-26 01:11:00,
2013-02-25 20:21:00,31.0,30.0,30.40,ENE,77,0.0,1.0,95,0.00,,,0.39,,2013-02-26 01:21:00,
2013-02-25 20:32:00,31.0,30.0,30.40,ENE,77,0.0,1.0,95,0.00,,,0.39,,2013-02-26 01:32:00,
2013-02-25 20:42:00,31.0,30.0,30.40,ENE,77,0.0,1.0,95,0.00,,,0.39,,2013-02-26 01:42:00,
2013-02-25 20:52:00,30.0,29.0,30.41,ENE,77,0.0,0.0,95,0.00,,,0.39,,2013-02-26 01:52:00,
2013-02-25 21:01:00,29.0,28.0,30.41,ENE,77,0.0,0.0,96,0.00,,,0.39,,2013-02-26 02:01:00,
2013-02-25 21:11:00,29.0,28.0,30.41,ENE,77,0.0,0.0,96,0.00,,,0.39,,2013-02-26 02:11:00,
2013-02-25 21:21:00,29.0,28.0,30.42,ENE,77,0.0,1.0,96,0.00,,,0.39,,2013-02-26 02:21:00,
2013-02-25 21:32:00,28.0,27.0,30.42,ENE,58,0.0,1.0,96,0.00,,,0.39,,2013-02-26 02:32:00,
2013-02-25 21:42:00,28.0,27.0,30.42,ENE,58,0.0,1.0,96,0.00,,,0.39,,2013-02-26 02:42:00,
2013-02-25 21:52:00,28.0,27.0,30.42,ENE,65,0.0,1.0,96,0.00,,,0.39,,2013-02-26 02:52:00,
2013-02-25 22:02:00,28.0,27.0,30.42,ENE,65,0.0,0.0,96,0.00,,,0.39,,2013-02-26 03:02:00,
2013-02-25 22:11:00,28.0,27.0,30.42,ENE,65,0.0,0.0,96,0.00,,,0.39,,2013-02-26 03:11:00,
2013-02-25 22:22:00,28.0,27.0,30.43,ENE,65,0.0,1.0,96,0.00,,,0.39,,2013-02-26 03:22:00,
2013-02-25 22:32:00,27.0,26.0,30.43,NNE,26,0.0,1.0,95,0.00,,,0.39,,2013-02-26 03:32:00,
2013-02-25 22:42:00,27.0,26.0,30.43,NNE,26,0.0,1.0,95,0.00,,,0.39,,2013-02-26 03:42:00,
2013-02-25 22:52:00,26.0,25.0,30.43,NE,46,0.0,1.0,95,0.00,,,0.39,,2013-02-26 03:52:00,
2013-02-25 23:02:00,26.0,25.0,30.43,North,10,0.0,1.0,96,0.00,,,0.39,,2013-02-26 04:02:00,
2013-02-25 23:11:00,26.0,25.0,30.43,North,10,0.0,1.0,96,0.00,,,0.39,,2013-02-26 04:11:00,
2013-02-25 23:22:00,26.0,25.0,30.43,NE,50,0.0,1.0,95,0.00,,,0.39,,2013-02-26 04:22:00,
2013-02-25 23:32:00,27.0,26.0,30.43,ENE,58,1.0,2.0,95,0.00,,,0.39,,2013-02-26 04:32:00,
2013-02-25 23:42:00,27.0,26.0,30.43,ENE,58,1.0,2.0,95,0.00,,,0.39,,2013-02-26 04:42:00,
2013-02-25 23:52:00,27.0,26.0,30.44,NNE,25,0.0,2.0,94,0.00,,,0.39,,2013-02-26 04:52:00,